Time;durP1;ratioP1;P1;durP2;ratioP2;P2;SDS_P1;SDS_P2;PMS_P1;PMS_P2;Temp;Humidity;BMP_temperature;BMP_pressure;BME280_temperature;BME280_humidity;BME280_pressure;Samples;Min_cycle;Max_cycle;Signal;HPM_P1;HPM_P2
2023/03/08 00:02:56;;;;;;;4.60;3.10;;;;;;;2.15;100.00;98480.66;180939;1267;43429;-75
2023/03/08 00:07:00;;;;;;;6.40;3.70;;;;;;;2.12;100.00;98485.09;181035;1267;58195;-74
2023/03/08 00:11:27;;;;;;;10.20;6.20;;;;;;;2.13;100.00;98490.80;180986;1267;43153;-73
2023/03/08 00:15:30;;;;;;;10.30;4.50;;;;;;;2.15;100.00;98491.38;180909;1268;43021;-76
2023/03/08 00:20:23;;;;;;;11.10;6.70;;;;;;;2.10;100.00;98489.94;180962;1267;43137;-72
2023/03/08 00:24:26;;;;;;;10.20;3.50;;;;;;;2.08;100.00;98489.91;180997;1267;42993;-76
2023/03/08 00:28:34;;;;;;;6.00;4.50;;;;;;;2.08;100.00;98492.72;180917;1268;58309;-74
2023/03/08 00:32:37;;;;;;;6.50;4.30;;;;;;;2.11;100.00;98498.78;181021;1268;43044;-74
2023/03/08 00:41:48;;;;;;;5.10;3.90;;;;;;;2.07;100.00;98508.16;180983;1267;43155;-73
2023/03/08 00:46:51;;;;;;;5.60;3.30;;;;;;;2.05;100.00;98508.85;181024;1267;43443;-73
2023/03/08 00:50:54;;;;;;;4.80;3.20;;;;;;;2.05;100.00;98521.65;180994;1267;58026;-74
2023/03/08 00:55:22;;;;;;;9.50;5.60;;;;;;;2.01;100.00;98518.77;180924;1267;43154;-73
2023/03/08 00:59:25;;;;;;;4.40;3.50;;;;;;;2.04;100.00;98520.48;180975;1267;43700;-73
2023/03/08 01:03:29;;;;;;;6.80;3.80;;;;;;;2.08;100.00;98522.77;180970;1268;44028;-72
2023/03/08 01:07:32;;;;;;;6.10;3.50;;;;;;;2.14;100.00;98533.58;180874;1268;43708;-72
2023/03/08 01:11:36;;;;;;;6.50;3.90;;;;;;;2.07;100.00;98535.81;180911;1267;58366;-74
2023/03/08 01:15:39;;;;;;;5.80;3.10;;;;;;;2.12;100.00;98535.45;180886;1267;43808;-72
2023/03/08 01:19:42;;;;;;;3.50;2.70;;;;;;;2.00;100.00;98541.08;180918;1268;43718;-72
2023/03/08 01:23:46;;;;;;;8.70;2.80;;;;;;;1.96;100.00;98545.19;180973;1268;43134;-73
2023/03/08 01:28:47;;;;;;;4.60;3.20;;;;;;;1.96;100.00;98549.95;181054;1267;43055;-72
2023/03/08 01:32:50;;;;;;;13.00;3.80;;;;;;;1.89;100.00;98555.02;181069;1266;57923;-72
2023/03/08 01:37:29;;;;;;;3.10;2.90;;;;;;;1.83;100.00;98557.84;181025;1267;43629;-72
2023/03/08 01:41:32;;;;;;;6.00;3.30;;;;;;;1.77;100.00;98561.94;181031;1267;43705;-74
2023/03/08 01:46:14;;;;;;;5.80;2.10;;;;;;;1.72;100.00;98558.67;180995;1267;43440;-75
2023/03/08 01:50:18;;;;;;;2.90;2.50;;;;;;;1.70;100.00;98555.66;180970;1268;43089;-72
2023/03/08 01:54:27;;;;;;;4.60;3.40;;;;;;;1.70;100.00;98566.81;180929;1267;57915;-73
2023/03/08 01:58:30;;;;;;;8.30;6.10;;;;;;;1.71;100.00;98560.31;180907;1267;43654;-73
2023/03/08 02:02:42;;;;;;;8.50;6.90;;;;;;;1.69;100.00;98566.02;180900;1267;43245;-74
2023/03/08 02:06:45;;;;;;;8.50;7.70;;;;;;;1.70;100.00;98565.98;181020;1268;43243;-73
2023/03/08 02:11:04;;;;;;;13.80;7.10;;;;;;;1.69;100.00;98567.28;180999;1267;43422;-74
2023/03/08 02:15:10;;;;;;;5.00;2.70;;;;;;;1.69;100.00;98568.64;181013;1267;57913;-74
2023/03/08 02:19:42;;;;;;;10.30;2.90;;;;;;;1.79;100.00;98571.64;180840;1268;43792;-74
2023/03/08 02:23:45;;;;;;;4.30;2.60;;;;;;;1.70;100.00;98585.73;180880;1268;43087;-73
2023/03/08 02:27:52;;;;;;;4.20;2.50;;;;;;;1.80;100.00;98585.38;180940;1268;43789;-72
2023/03/08 02:31:55;;;;;;;3.50;3.20;;;;;;;1.81;100.00;98582.46;180886;1268;43372;-73
2023/03/08 02:36:04;;;;;;;6.40;3.30;;;;;;;1.84;100.00;98584.30;180852;1268;57218;-73
2023/03/08 02:40:10;;;;;;;4.30;3.00;;;;;;;1.95;100.00;98590.17;180909;1268;43157;-75
2023/03/08 02:44:19;;;;;;;3.80;3.20;;;;;;;2.03;100.00;98589.59;180891;1268;43066;-73
2023/03/08 02:48:22;;;;;;;3.80;2.50;;;;;;;2.08;100.00;98589.08;180898;1268;43684;-73
2023/03/08 02:52:25;;;;;;;5.80;2.50;;;;;;;2.12;100.00;98589.16;181003;1268;43081;-73
2023/03/08 02:56:29;;;;;;;9.20;3.80;;;;;;;2.14;100.00;98589.14;180949;1268;59358;-74
2023/03/08 03:00:35;;;;;;;7.30;3.00;;;;;;;2.21;100.00;98592.89;180882;1270;43719;-73
2023/03/08 03:04:38;;;;;;;3.90;3.30;;;;;;;2.25;100.00;98597.48;181012;1268;43429;-75
2023/03/08 03:14:03;;;;;;;8.30;3.50;;;;;;;2.28;100.00;98605.27;143690;1284;79925;-73
2023/03/08 03:23:07;;;;;;;4.70;3.30;;;;;;;2.29;100.00;98611.88;180057;1266;43861;-86
2023/03/08 03:27:10;;;;;;;4.30;3.30;;;;;;;2.32;100.00;98613.41;180272;1265;43884;-85
2023/03/08 03:31:17;;;;;;;4.40;3.60;;;;;;;2.29;100.00;98612.88;180185;1266;43982;-85
2023/03/08 03:35:20;;;;;;;3.80;2.80;;;;;;;2.28;100.00;98618.08;180234;1265;44093;-85
2023/03/08 03:39:24;;;;;;;4.70;3.40;;;;;;;2.24;100.00;98625.13;180411;1265;58331;-86
2023/03/08 03:43:28;;;;;;;4.20;3.00;;;;;;;2.20;100.00;98630.87;180301;1265;44140;-85
2023/03/08 03:47:32;;;;;;;8.60;4.30;;;;;;;2.23;100.00;98637.49;180125;1265;43754;-84
2023/03/08 03:51:35;;;;;;;3.60;2.90;;;;;;;2.24;100.00;98636.94;180535;1266;44118;-84
2023/03/08 03:55:39;;;;;;;8.00;2.40;;;;;;;2.24;100.00;98642.31;180300;1265;44144;-85
2023/03/08 03:59:42;;;;;;;4.70;2.80;;;;;;;2.21;100.00;98648.68;180137;1265;59767;-83
2023/03/08 04:03:46;;;;;;;4.50;3.20;;;;;;;2.19;100.00;98644.41;180384;1266;43812;-85
2023/03/08 04:07:49;;;;;;;11.60;2.70;;;;;;;2.19;100.00;98658.92;180477;1265;44234;-85
2023/03/08 04:11:52;;;;;;;4.10;2.40;;;;;;;2.16;100.00;98662.99;180426;1265;44180;-84
2023/03/08 04:15:56;;;;;;;2.60;2.00;;;;;;;2.23;100.00;98648.83;180591;1265;44057;-84
2023/03/08 04:19:59;;;;;;;10.60;2.40;;;;;;;2.26;100.00;98653.16;180432;1265;58333;-84
2023/03/08 04:24:03;;;;;;;3.70;1.60;;;;;;;2.27;100.00;98653.45;180326;1265;43869;-85
2023/03/08 04:28:06;;;;;;;1.80;1.30;;;;;;;2.25;100.00;98655.52;180370;1266;44376;-84
2023/03/08 04:32:10;;;;;;;2.20;1.50;;;;;;;2.19;100.00;98658.63;180348;1266;44331;-84
2023/03/08 04:36:14;;;;;;;3.80;1.60;;;;;;;2.17;100.00;98662.94;180323;1265;43806;-84
2023/03/08 04:40:18;;;;;;;1.30;0.90;;;;;;;2.16;100.00;98664.73;180399;1267;59266;-84
2023/03/08 04:44:21;;;;;;;4.20;1.60;;;;;;;2.18;100.00;98657.42;180583;1265;43966;-85
2023/03/08 04:48:25;;;;;;;3.50;1.30;;;;;;;2.16;100.00;98670.20;180478;1265;43813;-85
2023/03/08 04:52:29;;;;;;;3.70;1.20;;;;;;;2.15;100.00;98667.45;180443;1265;43829;-85
2023/03/08 04:56:32;;;;;;;3.40;1.30;;;;;;;2.13;100.00;98663.42;180551;1265;43832;-85
2023/03/08 05:00:35;;;;;;;2.60;1.10;;;;;;;2.12;100.00;98667.98;180242;1267;231501;-84
2023/03/08 05:04:38;;;;;;;1.60;1.00;;;;;;;2.12;100.00;98675.88;180445;1265;43786;-84
2023/03/08 05:08:42;;;;;;;4.30;2.20;;;;;;;2.12;100.00;98678.66;180418;1265;44098;-84
2023/03/08 05:12:45;;;;;;;4.30;2.90;;;;;;;2.16;100.00;98678.02;180487;1266;44055;-85
2023/03/08 05:16:49;;;;;;;3.90;2.20;;;;;;;2.18;100.00;98681.20;180231;1267;43808;-86
2023/03/08 05:20:57;;;;;;;2.90;1.90;;;;;;;2.16;100.00;98689.59;180408;1267;58688;-86
2023/03/08 05:25:00;;;;;;;3.00;2.30;;;;;;;2.13;100.00;98690.83;180260;1265;44104;-86
2023/03/08 05:29:05;;;;;;;2.50;2.30;;;;;;;2.15;100.00;98693.30;180306;1265;43978;-85
2023/03/08 05:33:08;;;;;;;4.10;3.00;;;;;;;2.18;100.00;98699.79;180458;1266;43728;-86
2023/03/08 05:37:11;;;;;;;3.40;2.50;;;;;;;2.22;100.00;98699.27;180278;1267;43699;-85
2023/03/08 05:41:15;;;;;;;4.70;2.80;;;;;;;2.24;100.00;98703.84;180467;1267;57951;-85
2023/03/08 05:45:19;;;;;;;5.20;3.00;;;;;;;2.29;100.00;98712.10;180144;1267;43783;-84
2023/03/08 05:49:22;;;;;;;3.70;1.20;;;;;;;2.30;100.00;98709.95;180411;1265;43828;-84
2023/03/08 05:53:25;;;;;;;3.80;1.90;;;;;;;2.33;100.00;98710.41;180090;1271;44238;-84
2023/03/08 05:57:28;;;;;;;5.20;2.50;;;;;;;2.39;100.00;98715.41;180395;1265;43984;-84
2023/03/08 06:01:31;;;;;;;4.60;3.60;;;;;;;2.46;99.96;98713.67;180327;1265;58883;-84
2023/03/08 06:05:35;;;;;;;7.30;4.40;;;;;;;2.54;99.89;98708.51;180236;1265;43771;-84
2023/03/08 06:09:38;;;;;;;3.70;2.60;;;;;;;2.61;98.92;98712.77;180125;1265;43829;-84
2023/03/08 06:13:41;;;;;;;6.80;2.40;;;;;;;2.55;97.61;98725.59;180382;1268;44255;-84
2023/03/08 06:17:44;;;;;;;9.10;4.30;;;;;;;2.46;97.92;98727.54;180179;1267;43852;-84
2023/03/08 06:21:48;;;;;;;4.00;2.60;;;;;;;2.44;98.51;98729.73;180445;1265;59350;-84
2023/03/08 06:25:51;;;;;;;3.70;2.50;;;;;;;2.48;99.18;98731.36;180425;1266;43959;-84
2023/03/08 06:29:54;;;;;;;4.70;3.70;;;;;;;2.56;99.26;98732.33;180299;1267;44114;-84
2023/03/08 06:33:58;;;;;;;4.20;2.70;;;;;;;2.68;98.80;98729.55;180428;1265;44049;-84
2023/03/08 06:38:02;;;;;;;6.00;4.00;;;;;;;2.80;98.11;98736.74;180401;1265;44238;-85
2023/03/08 06:42:06;;;;;;;3.60;3.00;;;;;;;2.91;97.29;98736.80;180240;1265;59619;-84
2023/03/08 06:46:13;;;;;;;5.00;2.80;;;;;;;3.02;96.79;98731.76;180299;1265;43811;-84
2023/03/08 06:50:16;;;;;;;3.60;2.50;;;;;;;3.10;96.22;98740.30;180491;1265;44136;-84
2023/03/08 06:54:20;;;;;;;3.10;2.90;;;;;;;3.16;95.40;98740.75;180438;1265;44157;-84
2023/03/08 06:58:25;;;;;;;3.90;2.40;;;;;;;3.31;95.41;98744.48;180456;1265;44632;-84
2023/03/08 07:02:28;;;;;;;6.50;3.00;;;;;;;3.42;94.50;98748.91;180400;1265;59583;-84
2023/03/08 07:06:32;;;;;;;4.10;3.00;;;;;;;3.45;94.63;98744.83;180071;1265;43816;-84
2023/03/08 07:10:35;;;;;;;6.80;4.80;;;;;;;3.53;94.14;98757.02;180429;1265;43811;-85
2023/03/08 07:14:39;;;;;;;12.80;8.70;;;;;;;3.62;94.33;98763.55;180105;1267;43841;-84
2023/03/08 07:18:42;;;;;;;23.80;14.20;;;;;;;3.74;95.21;98771.20;180551;1265;43962;-84
2023/03/08 07:22:46;;;;;;;16.30;12.30;;;;;;;3.84;94.53;98773.77;180606;1265;58431;-84
2023/03/08 07:26:49;;;;;;;15.50;9.20;;;;;;;3.91;94.04;98768.13;180415;1268;44264;-84
2023/03/08 07:30:52;;;;;;;11.40;6.10;;;;;;;3.94;96.17;98766.69;180586;1265;43769;-84
2023/03/08 07:34:56;;;;;;;12.70;6.20;;;;;;;4.01;95.93;98765.06;180435;1265;43951;-84
2023/03/08 07:38:59;;;;;;;10.80;6.60;;;;;;;4.07;94.98;98770.92;180311;1267;43800;-84
2023/03/08 07:43:03;;;;;;;9.80;7.10;;;;;;;4.14;94.40;98765.64;180448;1265;59472;-84
2023/03/08 07:47:07;;;;;;;10.40;6.70;;;;;;;4.24;93.92;98756.09;180484;1265;44034;-84
2023/03/08 07:51:11;;;;;;;15.70;5.80;;;;;;;4.32;92.96;98760.40;180289;1265;44408;-84
2023/03/08 07:55:15;;;;;;;8.40;4.70;;;;;;;4.39;92.87;98767.84;180494;1265;44003;-84
2023/03/08 07:59:18;;;;;;;7.70;4.00;;;;;;;4.44;91.54;98766.96;180246;1267;43942;-84
2023/03/08 08:03:21;;;;;;;4.40;4.00;;;;;;;4.48;91.74;98769.60;180209;1265;59219;-84
2023/03/08 08:07:25;;;;;;;6.30;3.80;;;;;;;4.49;91.12;98780.11;180457;1265;43830;-84
2023/03/08 08:11:28;;;;;;;5.60;3.50;;;;;;;4.44;90.15;98782.19;180442;1265;43834;-84
2023/03/08 08:15:31;;;;;;;5.70;4.30;;;;;;;4.43;90.72;98780.36;180340;1265;44166;-84
2023/03/08 08:19:36;;;;;;;7.80;4.40;;;;;;;4.43;91.74;98777.93;180702;1265;44202;-84
2023/03/08 08:23:41;;;;;;;6.60;4.40;;;;;;;4.36;91.61;98788.65;180327;1266;57931;-85
2023/03/08 08:27:44;;;;;;;5.80;2.80;;;;;;;4.32;91.42;98794.05;180383;1265;43748;-85
2023/03/08 08:31:47;;;;;;;6.50;3.60;;;;;;;4.25;90.84;98789.30;180508;1265;43803;-84
2023/03/08 08:35:50;;;;;;;7.40;3.20;;;;;;;4.18;90.66;98782.00;180371;1267;44556;-84
2023/03/08 08:39:53;;;;;;;5.90;3.40;;;;;;;4.15;90.83;98772.21;180210;1265;43875;-84
2023/03/08 08:43:58;;;;;;;6.00;3.60;;;;;;;4.23;91.99;98775.10;180354;1265;58697;-84
2023/03/08 08:48:02;;;;;;;6.80;3.10;;;;;;;4.35;92.93;98779.05;180422;1266;43761;-84
2023/03/08 08:52:07;;;;;;;7.00;4.10;;;;;;;4.57;93.77;98775.06;180350;1265;43848;-84
2023/03/08 08:56:11;;;;;;;6.70;4.50;;;;;;;4.86;91.80;98769.39;180598;1265;44088;-84
2023/03/08 09:00:29;;;;;;;5.10;3.10;;;;;;;5.14;89.93;98768.99;180603;1265;43983;-83
2023/03/08 09:04:32;;;;;;;5.50;3.40;;;;;;;5.13;87.77;98769.39;180211;1265;58293;-84
2023/03/08 09:08:36;;;;;;;3.00;2.30;;;;;;;5.29;90.05;98766.85;180378;1265;43844;-84
2023/03/08 09:12:41;;;;;;;4.50;2.50;;;;;;;5.36;88.24;98770.18;180195;1265;44132;-84
2023/03/08 09:16:45;;;;;;;3.70;1.90;;;;;;;5.32;85.03;98762.26;180460;1265;43841;-84
2023/03/08 09:20:48;;;;;;;2.90;1.60;;;;;;;5.22;84.98;98765.33;180256;1268;44086;-84
2023/03/08 09:24:52;;;;;;;2.50;2.20;;;;;;;5.28;85.16;98754.65;180593;1265;59615;-84
2023/03/08 09:28:57;;;;;;;4.00;3.10;;;;;;;5.35;83.10;98749.48;180615;1265;43839;-84
2023/03/08 09:33:00;;;;;;;5.60;3.50;;;;;;;5.36;81.96;98744.73;180408;1267;43817;-84
2023/03/08 09:37:06;;;;;;;3.00;2.60;;;;;;;5.36;82.10;98742.90;180592;1265;43772;-83
2023/03/08 09:41:19;;;;;;;4.10;3.40;;;;;;;5.48;85.06;98738.41;180633;1265;43811;-83
2023/03/08 09:45:27;;;;;;;3.00;2.40;;;;;;;5.65;82.35;98733.60;180630;1265;58365;-84
2023/03/08 09:49:32;;;;;;;4.00;2.70;;;;;;;5.88;82.15;98723.89;180544;1265;44451;-84
2023/03/08 09:53:48;;;;;;;5.40;3.30;;;;;;;6.03;80.61;98720.70;180447;1265;44056;-84
2023/03/08 09:57:54;;;;;;;3.80;2.60;;;;;;;6.17;80.65;98710.12;180160;1265;44095;-84
2023/03/08 10:02:23;;;;;;;5.60;3.20;;;;;;;6.20;79.49;98715.55;180501;1265;43862;-84
2023/03/08 10:07:10;;;;;;;5.20;2.90;;;;;;;6.08;79.64;98720.80;180436;1265;57968;-84
2023/03/08 10:11:27;;;;;;;5.80;3.20;;;;;;;6.09;81.74;98715.46;179134;1274;43961;-84
2023/03/08 10:15:35;;;;;;;5.10;3.10;;;;;;;6.14;81.55;98702.17;179214;1276;44060;-84
2023/03/08 10:19:50;;;;;;;3.20;2.80;;;;;;;6.27;81.71;98694.09;178965;1274;44179;-84
2023/03/08 10:24:14;;;;;;;6.10;3.90;;;;;;;6.43;82.51;98686.88;178891;1276;43974;-84
2023/03/08 10:28:20;;;;;;;5.80;2.70;;;;;;;6.48;82.45;98683.42;179155;1274;59631;-83
2023/03/08 10:32:25;;;;;;;4.00;3.40;;;;;;;6.71;82.10;98677.36;179077;1274;44120;-84
2023/03/08 10:36:28;;;;;;;6.10;4.60;;;;;;;6.84;80.24;98672.84;178920;1274;44259;-83
2023/03/08 10:40:31;;;;;;;12.40;5.00;;;;;;;6.88;80.02;98669.38;179099;1274;44055;-84
2023/03/08 10:44:56;;;;;;;5.50;4.00;;;;;;;6.95;80.90;98667.03;179009;1274;44241;-85
2023/03/08 10:49:15;;;;;;;7.20;5.20;;;;;;;6.94;79.93;98667.14;180261;1265;59400;-84
2023/03/08 10:53:19;;;;;;;10.70;6.00;;;;;;;6.94;79.63;98661.73;180373;1265;43814;-84
2023/03/08 10:57:24;;;;;;;17.50;7.80;;;;;;;6.94;80.63;98660.47;180406;1265;44118;-84
2023/03/08 11:01:31;;;;;;;6.90;5.60;;;;;;;6.84;79.03;98650.91;180598;1265;44069;-83
2023/03/08 11:05:34;;;;;;;7.30;5.50;;;;;;;6.86;79.07;98646.38;180622;1265;44166;-83
2023/03/08 11:09:37;;;;;;;9.00;5.70;;;;;;;6.89;77.83;98640.64;180470;1265;59559;-83
2023/03/08 11:13:45;;;;;;;8.60;4.80;;;;;;;6.86;77.30;98632.08;180470;1265;44102;-84
2023/03/08 11:18:06;;;;;;;13.00;8.00;;;;;;;6.76;78.72;98614.54;180371;1265;44252;-84
2023/03/08 11:22:43;;;;;;;8.50;5.70;;;;;;;6.63;79.75;98604.91;180420;1265;44178;-83
2023/03/08 11:27:13;;;;;;;12.30;7.00;;;;;;;6.60;79.67;98598.86;180543;1265;44377;-84
2023/03/08 11:31:51;;;;;;;8.70;7.70;;;;;;;6.67;79.01;98595.98;180502;1265;59663;-84
2023/03/08 11:36:03;;;;;;;9.90;8.40;;;;;;;6.57;79.33;98585.04;179268;1273;44338;-85
2023/03/08 11:40:21;;;;;;;12.80;10.20;;;;;;;6.28;81.37;98578.21;179358;1273;44197;-84
2023/03/08 11:44:39;;;;;;;17.40;13.20;;;;;;;6.18;83.75;98574.85;179277;1273;44157;-84
2023/03/08 11:48:54;;;;;;;48.30;26.60;;;;;;;6.13;84.58;98566.02;179307;1274;43830;-84
2023/03/08 11:53:29;;;;;;;21.40;12.60;;;;;;;6.03;84.93;98562.14;179486;1272;57552;-84
2023/03/08 11:57:37;;;;;;;64.70;29.40;;;;;;;5.91;85.55;98559.48;179160;1273;44120;-84
2023/03/08 12:02:09;;;;;;;25.40;12.50;;;;;;;6.10;84.39;98557.30;179327;1273;44216;-84
2023/03/08 12:06:39;;;;;;;21.10;9.50;;;;;;;6.02;86.40;98551.14;179240;1273;44148;-84
2023/03/08 12:10:55;;;;;;;30.30;21.20;;;;;;;6.00;86.39;98541.50;179536;1266;44113;-84
2023/03/08 12:15:27;;;;;;;15.80;9.60;;;;;;;6.02;84.57;98539.30;180414;1267;59422;-83
2023/03/08 12:19:30;;;;;;;14.20;11.70;;;;;;;6.10;82.30;98530.54;180493;1266;43691;-84
2023/03/08 12:24:00;;;;;;;22.30;15.20;;;;;;;6.21;81.63;98524.95;180603;1265;43679;-84
2023/03/08 12:28:32;;;;;;;18.40;11.90;;;;;;;6.41;82.22;98512.59;180594;1265;44178;-83
2023/03/08 12:32:38;;;;;;;7.20;6.00;;;;;;;6.53;80.99;98499.81;180534;1265;44072;-83
2023/03/08 12:36:42;;;;;;;8.30;7.20;;;;;;;6.50;81.36;98492.73;180417;1265;58267;-84
2023/03/08 12:40:49;;;;;;;8.50;7.00;;;;;;;6.52;80.95;98485.86;180518;1265;44216;-83
2023/03/08 12:44:52;;;;;;;13.90;7.40;;;;;;;6.53;81.34;98477.12;180440;1266;44077;-83
2023/03/08 12:48:55;;;;;;;27.50;17.10;;;;;;;6.63;81.73;98470.39;180583;1266;44011;-84
2023/03/08 12:52:59;;;;;;;12.90;10.50;;;;;;;6.72;82.01;98458.75;180588;1266;43774;-84
2023/03/08 12:57:13;;;;;;;15.20;11.40;;;;;;;6.91;81.73;98453.98;180491;1266;60777;-84
2023/03/08 13:01:31;;;;;;;11.80;7.70;;;;;;;7.00;82.17;98440.44;180811;1266;43845;-84
2023/03/08 13:05:36;;;;;;;11.10;7.70;;;;;;;7.09;80.20;98430.62;180560;1269;43714;-84
2023/03/08 13:09:45;;;;;;;10.70;8.70;;;;;;;7.11;80.02;98427.05;180543;1266;43762;-83
2023/03/08 13:13:57;;;;;;;9.60;7.80;;;;;;;7.10;80.42;98417.68;180609;1267;44088;-84
2023/03/08 13:18:02;;;;;;;11.30;7.00;;;;;;;7.10;81.03;98407.06;180536;1267;58778;-83
2023/03/08 13:22:17;;;;;;;14.80;10.40;;;;;;;7.10;80.81;98398.13;180563;1265;44159;-83
2023/03/08 13:26:34;;;;;;;18.20;11.30;;;;;;;7.09;80.92;98395.16;180435;1265;43936;-84
2023/03/08 13:30:57;;;;;;;17.10;10.70;;;;;;;7.07;82.03;98389.23;180309;1266;43744;-84
2023/03/08 13:35:03;;;;;;;17.20;10.40;;;;;;;7.04;83.39;98382.45;180546;1266;44076;-84
2023/03/08 13:39:17;;;;;;;14.00;10.30;;;;;;;7.05;83.89;98378.52;180373;1265;58235;-83
2023/03/08 13:43:22;;;;;;;18.60;11.70;;;;;;;7.05;84.71;98367.69;180475;1266;43898;-84
2023/03/08 13:47:31;;;;;;;17.40;9.80;;;;;;;7.04;84.94;98361.10;180395;1269;43941;-84
2023/03/08 13:51:35;;;;;;;63.50;32.60;;;;;;;7.06;85.23;98357.75;180469;1265;43919;-84
2023/03/08 13:55:42;;;;;;;24.60;17.10;;;;;;;7.06;85.13;98348.30;180479;1265;44353;-84
2023/03/08 14:00:00;;;;;;;15.10;12.20;;;;;;;6.98;85.59;98350.60;180786;1267;57941;-84
2023/03/08 14:04:10;;;;;;;17.00;11.30;;;;;;;6.87;85.57;98349.73;180241;1267;43882;-85
2023/03/08 14:08:25;;;;;;;16.50;12.80;;;;;;;6.79;86.84;98347.97;180459;1266;44307;-85
2023/03/08 14:12:31;;;;;;;13.30;9.90;;;;;;;6.75;88.69;98347.77;180402;1266;43863;-85
2023/03/08 14:16:38;;;;;;;14.00;10.80;;;;;;;6.74;89.07;98348.34;180467;1266;43933;-85
2023/03/08 14:20:42;;;;;;;12.50;10.10;;;;;;;6.70;90.10;98352.11;180391;1267;59995;-84
2023/03/08 14:24:58;;;;;;;13.20;10.20;;;;;;;6.63;91.41;98353.27;180420;1265;44112;-85
2023/03/08 14:29:33;;;;;;;16.80;12.10;;;;;;;6.50;93.54;98354.13;180292;1265;44292;-84
2023/03/08 14:33:36;;;;;;;17.90;11.60;;;;;;;6.35;95.65;98359.59;180330;1267;43977;-84
2023/03/08 14:37:45;;;;;;;17.60;13.20;;;;;;;6.19;96.38;98356.02;180246;1266;44209;-82
2023/03/08 14:41:49;;;;;;;21.30;12.80;;;;;;;6.09;97.69;98352.69;180275;1267;58586;-84
2023/03/08 14:45:57;;;;;;;20.30;12.60;;;;;;;5.98;98.95;98352.13;180336;1265;44158;-84
2023/03/08 14:50:06;;;;;;;21.10;14.10;;;;;;;5.93;99.24;98353.16;180440;1265;43962;-84
2023/03/08 14:54:40;;;;;;;15.50;12.90;;;;;;;5.85;100.00;98346.82;180461;1265;44192;-83
2023/03/08 14:58:48;;;;;;;15.60;11.90;;;;;;;5.76;100.00;98339.89;180492;1266;43755;-85
2023/03/08 15:02:51;;;;;;;18.10;12.20;;;;;;;5.64;100.00;98334.46;180318;1266;59440;-86
2023/03/08 15:06:55;;;;;;;21.70;13.50;;;;;;;5.44;100.00;98325.37;180513;1266;43849;-85
2023/03/08 15:10:59;;;;;;;26.50;14.90;;;;;;;5.29;100.00;98324.96;180372;1265;44202;-85
2023/03/08 15:15:11;;;;;;;23.80;17.70;;;;;;;5.20;100.00;98319.33;180315;1265;44390;-85
2023/03/08 15:19:15;;;;;;;18.70;13.10;;;;;;;5.07;100.00;98311.86;180114;1265;46277;-85
2023/03/08 15:23:22;;;;;;;21.90;14.00;;;;;;;5.03;100.00;98306.26;180546;1265;60250;-85
2023/03/08 15:27:29;;;;;;;20.30;14.80;;;;;;;5.01;100.00;98301.53;180234;1265;44125;-85
2023/03/08 15:31:32;;;;;;;20.20;14.20;;;;;;;5.01;100.00;98290.41;180222;1265;44488;-85
2023/03/08 15:35:39;;;;;;;21.40;17.30;;;;;;;5.03;100.00;98287.33;180325;1266;44230;-86
2023/03/08 15:39:43;;;;;;;20.50;14.60;;;;;;;5.08;100.00;98282.47;180340;1265;44145;-86
2023/03/08 15:43:47;;;;;;;26.60;17.00;;;;;;;5.14;100.00;98275.59;180251;1265;59098;-86
2023/03/08 15:47:58;;;;;;;22.50;16.20;;;;;;;5.15;100.00;98267.71;180277;1265;43854;-86
2023/03/08 15:52:01;;;;;;;26.60;17.80;;;;;;;5.15;100.00;98268.27;180492;1265;43886;-86
2023/03/08 15:56:05;;;;;;;22.10;15.30;;;;;;;5.15;100.00;98268.23;180251;1265;43885;-86
2023/03/08 16:00:11;;;;;;;19.60;16.10;;;;;;;5.19;100.00;98257.41;180507;1265;43810;-86
2023/03/08 16:04:15;;;;;;;26.70;17.10;;;;;;;5.21;100.00;98245.98;180470;1265;59722;-86
2023/03/08 16:08:24;;;;;;;29.80;20.00;;;;;;;5.16;100.00;98242.02;180405;1266;44095;-86
2023/03/08 16:12:28;;;;;;;30.40;18.00;;;;;;;5.18;100.00;98231.80;180515;1265;43789;-86
2023/03/08 16:16:31;;;;;;;24.70;17.60;;;;;;;5.16;100.00;98227.59;180549;1266;43933;-86
2023/03/08 16:20:48;;;;;;;20.00;16.70;;;;;;;5.16;100.00;98224.79;180400;1265;44218;-86
2023/03/08 16:24:52;;;;;;;25.30;16.70;;;;;;;5.15;100.00;98219.05;180372;1265;60055;-86
2023/03/08 16:28:55;;;;;;;27.20;18.70;;;;;;;5.19;100.00;98238.04;180042;1265;43943;-84
2023/03/08 16:32:59;;;;;;;28.50;17.10;;;;;;;5.24;100.00;98239.36;180378;1266;44008;-84
2023/03/08 16:37:04;;;;;;;32.40;18.30;;;;;;;5.26;100.00;98223.45;180278;1265;44103;-85
2023/03/08 16:41:08;;;;;;;29.40;18.00;;;;;;;5.30;100.00;98211.58;180416;1265;43990;-85
2023/03/08 16:45:16;;;;;;;27.50;18.20;;;;;;;5.32;100.00;98210.02;180491;1265;58956;-85
2023/03/08 16:49:21;;;;;;;25.50;17.10;;;;;;;5.28;100.00;98201.50;180438;1266;43865;-85
2023/03/08 16:53:26;;;;;;;26.50;20.70;;;;;;;5.32;100.00;98202.12;180434;1265;43807;-85
2023/03/08 16:57:29;;;;;;;22.80;16.90;;;;;;;5.35;100.00;98213.17;180141;1265;44022;-85
2023/03/08 17:01:34;;;;;;;25.70;17.60;;;;;;;5.38;100.00;98218.24;177936;1266;3153541;-85
2023/03/08 17:05:39;;;;;;;32.30;21.20;;;;;;;5.39;100.00;98190.48;180348;1266;58228;-85
2023/03/08 17:09:42;;;;;;;26.70;18.40;;;;;;;5.37;100.00;98187.21;180361;1266;44237;-85
2023/03/08 17:13:50;;;;;;;20.50;16.50;;;;;;;5.35;100.00;98183.90;180299;1265;43830;-85
2023/03/08 17:17:55;;;;;;;27.20;18.60;;;;;;;5.35;100.00;98187.70;180326;1265;44324;-85
2023/03/08 17:22:00;;;;;;;27.30;18.20;;;;;;;5.39;100.00;98187.98;180552;1265;43760;-84
2023/03/08 17:26:08;;;;;;;28.20;19.70;;;;;;;5.45;100.00;98174.86;180268;1265;58236;-85
2023/03/08 17:30:13;;;;;;;23.00;17.00;;;;;;;5.45;100.00;98174.44;180272;1265;43888;-84
2023/03/08 17:34:19;;;;;;;28.30;19.00;;;;;;;5.46;100.00;98173.55;180550;1265;43801;-84
2023/03/08 17:38:22;;;;;;;32.30;18.40;;;;;;;5.48;100.00;98164.38;180441;1265;43895;-85
2023/03/08 17:42:26;;;;;;;30.70;17.80;;;;;;;5.51;100.00;98159.64;180401;1265;44588;-85
2023/03/08 17:46:29;;;;;;;30.90;19.30;;;;;;;5.54;100.00;98159.42;180313;1264;58912;-85
2023/03/08 17:50:33;;;;;;;35.10;22.10;;;;;;;5.57;100.00;98151.66;180434;1265;44184;-85
2023/03/08 17:54:37;;;;;;;36.10;22.10;;;;;;;5.61;100.00;98142.23;180326;1265;43849;-84
2023/03/08 17:58:41;;;;;;;32.60;22.40;;;;;;;5.60;100.00;98142.15;180321;1265;43721;-85
2023/03/08 18:02:45;;;;;;;33.90;21.50;;;;;;;5.63;100.00;98142.23;180427;1265;43909;-85
2023/03/08 18:06:49;;;;;;;26.70;19.40;;;;;;;5.62;100.00;98139.70;180274;1265;58039;-85
2023/03/08 18:10:52;;;;;;;33.80;18.70;;;;;;;5.62;100.00;98128.98;180443;1265;43945;-85
2023/03/08 18:14:56;;;;;;;22.70;18.30;;;;;;;5.65;100.00;98132.13;180382;1265;44045;-85
2023/03/08 18:19:02;;;;;;;32.90;21.00;;;;;;;5.68;100.00;98122.40;180192;1265;44141;-85
2023/03/08 18:23:06;;;;;;;32.70;23.60;;;;;;;5.68;100.00;98118.34;180390;1267;44592;-84
2023/03/08 18:27:09;;;;;;;29.40;19.00;;;;;;;5.67;100.00;98114.92;180477;1265;57400;-84
2023/03/08 18:31:22;;;;;;;27.00;21.40;;;;;;;5.66;100.00;98113.10;180284;1265;44061;-84
2023/03/08 18:35:25;;;;;;;32.50;22.60;;;;;;;5.67;100.00;98110.18;180372;1265;43911;-83
2023/03/08 18:39:28;;;;;;;30.60;19.20;;;;;;;5.65;100.00;98099.45;180562;1267;44705;-84
2023/03/08 18:43:32;;;;;;;30.00;20.60;;;;;;;5.62;100.00;98090.23;180443;1265;44378;-83
2023/03/08 18:47:36;;;;;;;36.00;25.70;;;;;;;5.63;100.00;98077.11;180501;1265;57948;-84
2023/03/08 18:51:41;;;;;;;35.70;21.70;;;;;;;5.67;100.00;98074.66;180270;1265;44460;-86
2023/03/08 18:55:59;;;;;;;36.40;19.60;;;;;;;5.68;100.00;98062.40;180286;1267;43797;-85
2023/03/08 19:00:09;;;;;;;32.30;23.00;;;;;;;5.70;100.00;98058.73;180295;1266;44262;-85
2023/03/08 19:04:13;;;;;;;44.80;25.80;;;;;;;5.73;100.00;98064.25;180435;1265;44071;-85
2023/03/08 19:08:18;;;;;;;37.20;24.30;;;;;;;5.77;100.00;98062.08;180403;1266;58199;-85
2023/03/08 19:12:21;;;;;;;32.60;23.50;;;;;;;5.81;100.00;98061.67;180258;1266;44637;-85
2023/03/08 19:16:28;;;;;;;34.00;22.80;;;;;;;5.81;100.00;98061.86;180422;1265;44134;-84
2023/03/08 19:20:35;;;;;;;43.30;27.20;;;;;;;5.85;100.00;98061.42;180558;1265;43928;-83
2023/03/08 19:24:38;;;;;;;40.90;28.50;;;;;;;5.93;100.00;98057.61;180642;1266;43715;-84